Sky Vita — V2PU8 — position and weather

sailwx.info

Track history (hours):
 
Tides and Currents Weather Stations Pressure Air Temp Water Temp Dewpoint Dewpoint Depression Visibility Wind Speed Wind Dir Waves Ship Positions

Sky Vita

Last reported at 2018-Feb-19 08:00 UTC. Time now 2018-Feb-19 08:25 UTC.
Position N 48°19' W 005°06'.

Length 88 m; draft 5.1 m.

Type: Cargo ship. MMSI: 304768000.

Date/timePositionNaut miles runAvg speedWind from/ knotsBaromVisibWave heightAir tempDewpointWater temp
2018-Feb-19 08:00N 48°19' W 005°06'5 9.4
2018-Feb-19 07:30N 48°22' W 005°11'4 8.9
2018-Feb-19 07:00N 48°25' W 005°16'4 8.8
2018-Feb-19 06:30N 48°28' W 005°21'4 7.6
2018-Feb-19 06:00N 48°31' W 005°25'3 6.1
2018-Feb-19 05:30N 48°33' W 005°22'3 6.2
2018-Feb-19 04:59N 48°36' W 005°19'3 6.2
2018-Feb-19 04:30N 48°38' W 005°16'3 6.3
2018-Feb-19 04:00N 48°40' W 005°12'3 6.7
2018-Feb-19 03:30N 48°43' W 005°09'4 7.0
2018-Feb-19 03:00N 48°45' W 005°05'4 7.7
2018-Feb-19 02:30N 48°47' W 005°00'4 8.4
2018-Feb-19 02:00N 48°50' W 004°55'7 9.0
2018-Feb-19 01:11N 48°55' W 004°47'4 9.5
2018-Feb-19 00:46N 48°58' W 004°43'73 8.4
2018-Feb-18 16:05N 49°46' W 003°19'110.0
2018-Feb-18 15:59N 49°47' W 003°18'610.5
2018-Feb-18 15:24N 49°51' W 003°11'710.9
2018-Feb-18 14:47N 49°56' W 003°03'311.0
2018-Feb-18 14:30N 49°57' W 002°59'510.9
2018-Feb-18 14:00N 49°59' W 002°52'610.4
2018-Feb-18 13:23N 50°01' W 002°42'38 6.6
2018-Feb-18 07:40N 50°12' W 001°45'2 7.0
2018-Feb-18 07:24N 50°13' W 001°42'5710.7
2018-Feb-18 02:04N 50°29' W 000°17'110.3
2018-Feb-18 01:58N 50°29' W 000°15'510.2
2018-Feb-18 01:30N 50°31' W 000°08'5 9.5
2018-Feb-18 01:01N 50°32' W 000°01'4 8.9
2018-Feb-18 00:30N 50°33' E 000°06'4 8.4
2018-Feb-18 00:00N 50°34' E 000°12'4 7.9
2018-Feb-17 23:30N 50°35' E 000°18'4 7.4
2018-Feb-17 23:00N 50°36' E 000°24'4 7.1
2018-Feb-17 22:30N 50°37' E 000°29'4 7.1
2018-Feb-17 22:00N 50°39' E 000°34'4 7.5
2018-Feb-17 21:30N 50°41' E 000°39'4 8.2
2018-Feb-17 21:00N 50°43' E 000°45'5 9.0
2018-Feb-17 20:30N 50°46' E 000°50'510.0
2018-Feb-17 19:59N 50°49' E 000°57'1410.8
2018-Feb-17 18:42N 50°57' E 001°14'311.3
2018-Feb-17 18:28N 50°59' E 001°18'510.6
2018-Feb-17 18:00N 51°02' E 001°24'510.0
2018-Feb-17 17:30N 51°05' E 001°30'4 8.9
2018-Feb-17 17:00N 51°08' E 001°35'4 8.0
2018-Feb-17 16:30N 51°11' E 001°40'4 7.6
2018-Feb-17 16:00N 51°13' E 001°45'4 7.4
2018-Feb-17 15:30N 51°17' E 001°47'3 7.0
2018-Feb-17 15:00N 51°20' E 001°50'3 6.6
2018-Feb-17 14:30N 51°23' E 001°52'3 6.8
2018-Feb-17 14:00N 51°26' E 001°54'4 7.2
2018-Feb-17 13:30N 51°29' E 001°58'4 8.1
2018-Feb-17 13:00N 51°32' E 002°02'5 8.8
2018-Feb-17 12:27N 51°35' E 002°07'4 8.9
2018-Feb-17 11:58N 51°38' E 002°12'5 9.7
2018-Feb-17 11:29N 51°42' E 002°17'69 9.5
2018-Feb-17 04:14N 52°36' E 003°27'2 7.7
2018-Feb-17 03:59N 52°37' E 003°29'4 7.5
2018-Feb-17 03:30N 52°40' E 003°33'45 9.1
2018-Feb-16 22:32N 53°13' E 004°25'0 9.8
2018-Feb-16 22:30N 53°13' E 004°25'140 7.4
2018-Feb-16 03:34N 54°01' E 008°06'1 9.8
2018-Feb-16 03:30N 54°01' E 008°07'5 9.0
2018-Feb-16 02:58N 54°00' E 008°15'510.5
2018-Feb-16 02:30N 53°59' E 008°23'510.8
2018-Feb-16 02:00N 53°58' E 008°32'5 9.6
2018-Feb-16 01:29N 53°56' E 008°40'4 8.5
2018-Feb-16 01:00N 53°53' E 008°43'4 7.1
2018-Feb-16 00:30N 53°51' E 008°48'4 7.1
2018-Feb-16 00:00N 53°51' E 008°54'3 6.4
2018-Feb-15 23:30N 53°51' E 008°59'3 5.7
2018-Feb-15 23:00N 53°52' E 009°04'3 6.2
2018-Feb-15 22:30N 53°54' E 009°09'0 0.1
2018-Feb-15 22:00N 53°54' E 009°09'0 0.0
2018-Feb-15 21:29N 53°54' E 009°09'0 0.9
2018-Feb-15 21:00N 53°54' E 009°09'3 6.2
2018-Feb-15 20:30N 53°56' E 009°13'4 8.9
2018-Feb-15 20:00N 53°60' E 009°17'2 4.9
2018-Feb-15 19:30N 54°02' E 009°18'1 1.5
2018-Feb-15 19:00N 54°03' E 009°18'5 8.6
2018-Feb-15 18:29N 54°07' E 009°20'3 6.0
2018-Feb-15 17:57N 54°10' E 009°24'4 8.8
2018-Feb-15 17:31N 54°11' E 009°30'2 4.1
2018-Feb-15 17:01N 54°12' E 009°33'3 6.4
2018-Feb-15 16:30N 54°14' E 009°37'4 7.4
2018-Feb-15 16:01N 54°17' E 009°40'4 7.6
2018-Feb-15 15:31N 54°20' E 009°44'34 6.8
2018-Feb-15 10:28N 54°35' E 010°38'4 9.3
2018-Feb-15 10:01N 54°35' E 010°45'5 9.3
2018-Feb-15 09:30N 54°35' E 010°53'510.2
2018-Feb-15 09:01N 54°36' E 011°02'5 9.7
2018-Feb-15 08:31N 54°36' E 011°10'510.5
2018-Feb-15 07:59N 54°34' E 011°19'5 9.9
2018-Feb-15 07:30N 54°32' E 011°26'5 9.4
2018-Feb-15 07:01N 54°30' E 011°33'5 9.2
2018-Feb-15 06:29N 54°28' E 011°41'9 9.1
2018-Feb-15 05:31N 54°27' E 011°56'010.0
2018-Feb-15 05:30N 54°27' E 011°56'5 9.7
2018-Feb-15 05:00N 54°27' E 012°05'82 8.8
2018-Feb-14 19:42N 55°08' E 014°08'2 9.2
2018-Feb-14 19:28N 55°09' E 014°11'4 8.9
2018-Feb-14 19:00N 55°12' E 014°15'5 9.0
2018-Feb-14 18:26N 55°16' E 014°21'9 9.1
2018-Feb-14 17:28N 55°23' E 014°31'10 9.0
2018-Feb-14 16:24N 55°29' E 014°44'4 9.1
2018-Feb-14 16:01N 55°31' E 014°50'5 9.0
2018-Feb-14 15:29N 55°33' E 014°57'10 8.9
2018-Feb-14 14:25N 55°37' E 015°12'4 8.9
2018-Feb-14 14:00N 55°38' E 015°18'4 8.9
2018-Feb-14 13:31N 55°39' E 015°26'4 8.9
2018-Feb-14 13:01N 55°40' E 015°34'5 9.1
2018-Feb-14 12:30N 55°41' E 015°41'5 9.1
2018-Feb-14 12:00N 55°43' E 015°49'5 9.0
2018-Feb-14 11:30N 55°44' E 015°57'5 9.0
2018-Feb-14 11:00N 55°45' E 016°05'4 9.2
2018-Feb-14 10:30N 55°46' E 016°13'5 9.1
2018-Feb-14 10:00N 55°47' E 016°20'5 9.1
2018-Feb-14 09:30N 55°48' E 016°28'  
2018-Feb-09 14:01N 55°38' E 016°11'  
Track history (hours):
 
Tides and Currents Weather Stations Pressure Air Temp Water Temp Dewpoint Dewpoint Depression Visibility Wind Speed Wind Dir Waves Ship Positions

Sky Vita

Last reported at 2018-Feb-19 08:00 UTC. Time now 2018-Feb-19 08:25 UTC.
Position N 48°19' W 005°06'.

Length 88 m; draft 5.1 m.

Type: Cargo ship. MMSI: 304768000.

Date/timePositionNaut miles runAvg speedWind from/ knotsBaromVisibWave heightAir tempDewpointWater temp
2018-Feb-19 08:00N 48°19' W 005°06'5 9.4
2018-Feb-19 07:30N 48°22' W 005°11'4 8.9
2018-Feb-19 07:00N 48°25' W 005°16'4 8.8
2018-Feb-19 06:30N 48°28' W 005°21'4 7.6
2018-Feb-19 06:00N 48°31' W 005°25'3 6.1
2018-Feb-19 05:30N 48°33' W 005°22'3 6.2
2018-Feb-19 04:59N 48°36' W 005°19'3 6.2
2018-Feb-19 04:30N 48°38' W 005°16'3 6.3
2018-Feb-19 04:00N 48°40' W 005°12'3 6.7
2018-Feb-19 03:30N 48°43' W 005°09'4 7.0
2018-Feb-19 03:00N 48°45' W 005°05'4 7.7
2018-Feb-19 02:30N 48°47' W 005°00'4 8.4
2018-Feb-19 02:00N 48°50' W 004°55'7 9.0
2018-Feb-19 01:11N 48°55' W 004°47'4 9.5
2018-Feb-19 00:46N 48°58' W 004°43'73 8.4
2018-Feb-18 16:05N 49°46' W 003°19'110.0
2018-Feb-18 15:59N 49°47' W 003°18'610.5
2018-Feb-18 15:24N 49°51' W 003°11'710.9
2018-Feb-18 14:47N 49°56' W 003°03'311.0
2018-Feb-18 14:30N 49°57' W 002°59'510.9
2018-Feb-18 14:00N 49°59' W 002°52'610.4
2018-Feb-18 13:23N 50°01' W 002°42'38 6.6
2018-Feb-18 07:40N 50°12' W 001°45'2 7.0
2018-Feb-18 07:24N 50°13' W 001°42'5710.7
2018-Feb-18 02:04N 50°29' W 000°17'110.3
2018-Feb-18 01:58N 50°29' W 000°15'510.2
2018-Feb-18 01:30N 50°31' W 000°08'5 9.5
2018-Feb-18 01:01N 50°32' W 000°01'4 8.9
2018-Feb-18 00:30N 50°33' E 000°06'4 8.4
2018-Feb-18 00:00N 50°34' E 000°12'4 7.9
2018-Feb-17 23:30N 50°35' E 000°18'4 7.4
2018-Feb-17 23:00N 50°36' E 000°24'4 7.1
2018-Feb-17 22:30N 50°37' E 000°29'4 7.1
2018-Feb-17 22:00N 50°39' E 000°34'4 7.5
2018-Feb-17 21:30N 50°41' E 000°39'4 8.2
2018-Feb-17 21:00N 50°43' E 000°45'5 9.0
2018-Feb-17 20:30N 50°46' E 000°50'510.0
2018-Feb-17 19:59N 50°49' E 000°57'1410.8
2018-Feb-17 18:42N 50°57' E 001°14'311.3
2018-Feb-17 18:28N 50°59' E 001°18'510.6
2018-Feb-17 18:00N 51°02' E 001°24'510.0
2018-Feb-17 17:30N 51°05' E 001°30'4 8.9
2018-Feb-17 17:00N 51°08' E 001°35'4 8.0
2018-Feb-17 16:30N 51°11' E 001°40'4 7.6
2018-Feb-17 16:00N 51°13' E 001°45'4 7.4
2018-Feb-17 15:30N 51°17' E 001°47'3 7.0
2018-Feb-17 15:00N 51°20' E 001°50'3 6.6
2018-Feb-17 14:30N 51°23' E 001°52'3 6.8
2018-Feb-17 14:00N 51°26' E 001°54'4 7.2
2018-Feb-17 13:30N 51°29' E 001°58'4 8.1
2018-Feb-17 13:00N 51°32' E 002°02'5 8.8
2018-Feb-17 12:27N 51°35' E 002°07'4 8.9
2018-Feb-17 11:58N 51°38' E 002°12'5 9.7
2018-Feb-17 11:29N 51°42' E 002°17'69 9.5
2018-Feb-17 04:14N 52°36' E 003°27'2 7.7
2018-Feb-17 03:59N 52°37' E 003°29'4 7.5
2018-Feb-17 03:30N 52°40' E 003°33'45 9.1
2018-Feb-16 22:32N 53°13' E 004°25'0 9.8
2018-Feb-16 22:30N 53°13' E 004°25'140 7.4
2018-Feb-16 03:34N 54°01' E 008°06'1 9.8
2018-Feb-16 03:30N 54°01' E 008°07'5 9.0
2018-Feb-16 02:58N 54°00' E 008°15'510.5
2018-Feb-16 02:30N 53°59' E 008°23'510.8
2018-Feb-16 02:00N 53°58' E 008°32'5 9.6
2018-Feb-16 01:29N 53°56' E 008°40'4 8.5
2018-Feb-16 01:00N 53°53' E 008°43'4 7.1
2018-Feb-16 00:30N 53°51' E 008°48'4 7.1
2018-Feb-16 00:00N 53°51' E 008°54'3 6.4
2018-Feb-15 23:30N 53°51' E 008°59'3 5.7
2018-Feb-15 23:00N 53°52' E 009°04'3 6.2
2018-Feb-15 22:30N 53°54' E 009°09'0 0.1
2018-Feb-15 22:00N 53°54' E 009°09'0 0.0
2018-Feb-15 21:29N 53°54' E 009°09'0 0.9
2018-Feb-15 21:00N 53°54' E 009°09'3 6.2
2018-Feb-15 20:30N 53°56' E 009°13'4 8.9
2018-Feb-15 20:00N 53°60' E 009°17'2 4.9
2018-Feb-15 19:30N 54°02' E 009°18'1 1.5
2018-Feb-15 19:00N 54°03' E 009°18'5 8.6
2018-Feb-15 18:29N 54°07' E 009°20'3 6.0
2018-Feb-15 17:57N 54°10' E 009°24'4 8.8
2018-Feb-15 17:31N 54°11' E 009°30'2 4.1
2018-Feb-15 17:01N 54°12' E 009°33'3 6.4
2018-Feb-15 16:30N 54°14' E 009°37'4 7.4
2018-Feb-15 16:01N 54°17' E 009°40'4 7.6
2018-Feb-15 15:31N 54°20' E 009°44'34 6.8
2018-Feb-15 10:28N 54°35' E 010°38'4 9.3
2018-Feb-15 10:01N 54°35' E 010°45'5 9.3
2018-Feb-15 09:30N 54°35' E 010°53'510.2
2018-Feb-15 09:01N 54°36' E 011°02'5 9.7
2018-Feb-15 08:31N 54°36' E 011°10'510.5
2018-Feb-15 07:59N 54°34' E 011°19'5 9.9
2018-Feb-15 07:30N 54°32' E 011°26'5 9.4
2018-Feb-15 07:01N 54°30' E 011°33'5 9.2
2018-Feb-15 06:29N 54°28' E 011°41'9 9.1
2018-Feb-15 05:31N 54°27' E 011°56'010.0
2018-Feb-15 05:30N 54°27' E 011°56'5 9.7
2018-Feb-15 05:00N 54°27' E 012°05'82 8.8
2018-Feb-14 19:42N 55°08' E 014°08'2 9.2
2018-Feb-14 19:28N 55°09' E 014°11'4 8.9
2018-Feb-14 19:00N 55°12' E 014°15'5 9.0
2018-Feb-14 18:26N 55°16' E 014°21'9 9.1
2018-Feb-14 17:28N 55°23' E 014°31'10 9.0
2018-Feb-14 16:24N 55°29' E 014°44'4 9.1
2018-Feb-14 16:01N 55°31' E 014°50'5 9.0
2018-Feb-14 15:29N 55°33' E 014°57'10 8.9
2018-Feb-14 14:25N 55°37' E 015°12'4 8.9
2018-Feb-14 14:00N 55°38' E 015°18'4 8.9
2018-Feb-14 13:31N 55°39' E 015°26'4 8.9
2018-Feb-14 13:01N 55°40' E 015°34'5 9.1
2018-Feb-14 12:30N 55°41' E 015°41'5 9.1
2018-Feb-14 12:00N 55°43' E 015°49'5 9.0
2018-Feb-14 11:30N 55°44' E 015°57'5 9.0
2018-Feb-14 11:00N 55°45' E 016°05'4 9.2
2018-Feb-14 10:30N 55°46' E 016°13'5 9.1
2018-Feb-14 10:00N 55°47' E 016°20'5 9.1
2018-Feb-14 09:30N 55°48' E 016°28'  
2018-Feb-09 14:01N 55°38' E 016°11'  

Dump ship's entire track history